createdAt,value
2018-03-30T00:00:40.808Z,980.69
2018-03-30T00:01:40.977Z,980.66
2018-03-30T00:02:41.203Z,980.67
2018-03-30T00:03:41.431Z,980.69
2018-03-30T00:04:41.618Z,980.69
2018-03-30T00:05:41.828Z,980.68
2018-03-30T00:06:42.038Z,980.70
2018-03-30T00:07:42.256Z,980.67
2018-03-30T00:08:42.445Z,980.64
2018-03-30T00:09:42.665Z,980.60
2018-03-30T00:10:42.861Z,980.59
2018-03-30T00:11:43.055Z,980.56
2018-03-30T00:12:43.263Z,980.51
2018-03-30T00:13:43.477Z,980.54
2018-03-30T00:14:43.679Z,980.51
2018-03-30T00:15:43.882Z,980.60
2018-03-30T00:16:44.090Z,980.55
2018-03-30T00:17:44.288Z,980.52
2018-03-30T00:18:44.497Z,980.53
2018-03-30T00:19:44.695Z,980.52
2018-03-30T00:20:44.898Z,980.50
2018-03-30T00:21:45.098Z,980.50
2018-03-30T00:22:45.300Z,980.48
2018-03-30T00:23:45.513Z,980.49
2018-03-30T00:24:45.718Z,980.45
2018-03-30T00:25:45.918Z,980.49
2018-03-30T00:26:46.130Z,980.46
2018-03-30T00:27:46.331Z,980.44
2018-03-30T00:28:46.542Z,980.46
2018-03-30T00:29:48.476Z,980.46
2018-03-30T00:30:46.922Z,980.46
2018-03-30T00:31:47.130Z,980.45
2018-03-30T00:32:47.337Z,980.43
2018-03-30T00:33:47.546Z,980.44
2018-03-30T00:34:47.759Z,980.43
2018-03-30T00:35:47.969Z,980.43
2018-03-30T00:36:48.182Z,980.45
2018-03-30T00:37:48.396Z,980.41
2018-03-30T00:38:48.585Z,980.41
2018-03-30T00:39:50.476Z,980.41
2018-03-30T00:40:50.474Z,980.45
2018-03-30T00:41:49.045Z,980.39
2018-03-30T00:42:49.265Z,980.40
2018-03-30T00:43:49.470Z,980.35
2018-03-30T00:44:49.672Z,980.38
2018-03-30T00:45:49.891Z,980.37
2018-03-30T00:46:50.118Z,980.36
2018-03-30T00:47:50.321Z,980.40
2018-03-30T00:48:52.478Z,980.41
2018-03-30T00:49:50.671Z,980.39
2018-03-30T00:50:52.483Z,980.40
2018-03-30T00:51:51.058Z,980.41
2018-03-30T00:52:51.258Z,980.42
2018-03-30T00:53:51.474Z,980.43
2018-03-30T00:54:51.685Z,980.35
2018-03-30T00:55:53.477Z,980.35
2018-03-30T00:56:52.061Z,980.36
2018-03-30T00:57:52.258Z,980.36
2018-03-30T00:58:52.474Z,980.36
2018-03-30T00:59:56.478Z,980.36
2018-03-30T01:00:56.816Z,980.33
2018-03-30T01:01:54.977Z,980.32
2018-03-30T01:02:53.185Z,980.29
2018-03-30T01:03:53.382Z,980.29
2018-03-30T01:04:55.476Z,980.28
2018-03-30T01:05:55.477Z,980.30
2018-03-30T01:06:53.924Z,980.32
2018-03-30T01:07:54.137Z,980.27
2018-03-30T01:08:54.338Z,980.23
2018-03-30T01:09:54.551Z,980.19
2018-03-30T01:10:54.763Z,980.18
2018-03-30T01:11:56.478Z,980.19
2018-03-30T01:12:55.175Z,980.21
2018-03-30T01:13:55.376Z,980.24
2018-03-30T01:14:55.579Z,980.27
2018-03-30T01:15:55.781Z,980.33
2018-03-30T01:16:55.975Z,980.29
2018-03-30T01:17:56.187Z,980.37
2018-03-30T01:18:56.405Z,980.37
2018-03-30T01:19:56.597Z,980.29
2018-03-30T01:21:00.474Z,980.29
2018-03-30T01:21:56.918Z,980.26
2018-03-30T01:22:57.114Z,980.32
2018-03-30T01:23:57.332Z,980.31
2018-03-30T01:24:57.524Z,980.31
2018-03-30T01:25:57.743Z,980.29
2018-03-30T01:26:57.960Z,980.21
2018-03-30T01:27:58.158Z,980.25
2018-03-30T01:28:58.370Z,980.19
2018-03-30T01:29:58.592Z,980.23
2018-03-30T01:30:58.803Z,980.21
2018-03-30T01:31:59.009Z,980.23
2018-03-30T01:32:59.220Z,980.23
2018-03-30T01:33:59.308Z,980.22
2018-03-30T01:34:59.516Z,980.18
2018-03-30T01:35:59.714Z,980.16
2018-03-30T01:36:59.912Z,980.19
2018-03-30T01:38:00.117Z,980.20
2018-03-30T01:39:00.312Z,980.19
2018-03-30T01:40:00.522Z,980.20
2018-03-30T01:41:00.723Z,980.17
2018-03-30T01:42:00.932Z,980.13
2018-03-30T01:43:01.141Z,980.13
2018-03-30T01:44:01.343Z,980.11
2018-03-30T01:45:01.557Z,980.07
2018-03-30T01:46:01.764Z,980.07
2018-03-30T01:47:01.968Z,980.05
2018-03-30T01:48:02.189Z,980.07
2018-03-30T01:49:02.378Z,980.08
2018-03-30T01:50:02.572Z,980.07
2018-03-30T01:51:02.783Z,980.01
2018-03-30T01:52:02.986Z,980.00
2018-03-30T01:53:04.997Z,979.95
2018-03-30T01:54:03.324Z,979.99
2018-03-30T01:55:03.535Z,979.95
2018-03-30T01:56:03.742Z,979.96
2018-03-30T01:57:05.479Z,979.95
2018-03-30T01:58:04.049Z,979.89
2018-03-30T01:59:04.256Z,979.90
2018-03-30T02:00:04.469Z,979.92
2018-03-30T02:01:04.664Z,979.87
2018-03-30T02:02:04.867Z,979.93
2018-03-30T02:03:05.081Z,979.90
2018-03-30T02:04:05.279Z,979.86
2018-03-30T02:05:05.487Z,979.84
2018-03-30T02:06:05.692Z,979.81
2018-03-30T02:07:05.873Z,979.79
2018-03-30T02:08:06.072Z,979.78
2018-03-30T02:09:06.277Z,979.73
2018-03-30T02:10:06.489Z,979.75
2018-03-30T02:11:06.695Z,979.70
2018-03-30T02:12:06.888Z,979.74
2018-03-30T02:13:07.098Z,979.71
2018-03-30T02:14:07.301Z,979.70
2018-03-30T02:15:07.507Z,979.68
2018-03-30T02:16:07.713Z,979.73
2018-03-30T02:17:07.917Z,979.72
2018-03-30T02:18:08.140Z,979.69
2018-03-30T02:19:09.976Z,979.66
2018-03-30T02:20:10.478Z,979.68
2018-03-30T02:21:08.684Z,979.64
2018-03-30T02:22:08.907Z,979.60
2018-03-30T02:23:10.981Z,979.58
2018-03-30T02:24:09.311Z,979.54
2018-03-30T02:25:09.511Z,979.51
2018-03-30T02:26:09.720Z,979.51
2018-03-30T02:27:09.938Z,979.45
2018-03-30T02:28:10.143Z,979.46
2018-03-30T02:29:10.347Z,979.45
2018-03-30T02:30:10.560Z,979.50
2018-03-30T02:31:10.753Z,979.53
2018-03-30T02:32:10.958Z,979.51
2018-03-30T02:33:11.157Z,979.48
2018-03-30T02:34:11.375Z,979.51
2018-03-30T02:35:11.573Z,979.51
2018-03-30T02:36:11.795Z,979.49
2018-03-30T02:37:13.485Z,979.48
2018-03-30T02:38:12.184Z,979.47
2018-03-30T02:39:12.389Z,979.46
2018-03-30T02:40:12.598Z,979.52
2018-03-30T02:41:12.797Z,979.49
2018-03-30T02:42:13.001Z,979.47
2018-03-30T02:43:13.217Z,979.45
2018-03-30T02:44:16.973Z,979.44
2018-03-30T02:45:13.539Z,979.48
2018-03-30T02:46:13.755Z,979.48
2018-03-30T02:47:13.969Z,979.47
2018-03-30T02:48:14.168Z,979.45
2018-03-30T02:49:14.407Z,979.50
2018-03-30T02:50:14.593Z,979.47
2018-03-30T02:51:14.806Z,979.54
2018-03-30T02:52:16.977Z,979.55
2018-03-30T02:53:18.993Z,979.51
2018-03-30T02:54:15.372Z,979.51
2018-03-30T02:55:15.530Z,979.54
2018-03-30T02:56:17.478Z,979.48
2018-03-30T02:57:15.930Z,979.53
2018-03-30T02:58:16.141Z,979.55
2018-03-30T02:59:16.351Z,979.52
2018-03-30T03:00:16.558Z,979.57
2018-03-30T03:01:16.764Z,979.51
2018-03-30T03:02:16.970Z,979.55
2018-03-30T03:03:17.171Z,979.53
2018-03-30T03:04:18.984Z,979.52
2018-03-30T03:05:17.561Z,979.49
2018-03-30T03:06:19.481Z,979.46
2018-03-30T03:07:19.481Z,979.50
2018-03-30T03:08:18.060Z,979.48
2018-03-30T03:09:18.258Z,979.56
2018-03-30T03:10:18.469Z,979.55
2018-03-30T03:11:20.473Z,979.54
2018-03-30T03:12:18.795Z,979.56
2018-03-30T03:13:19.002Z,979.56
2018-03-30T03:14:19.199Z,979.60
2018-03-30T03:15:19.397Z,979.61
2018-03-30T03:16:21.478Z,979.62
2018-03-30T03:17:21.515Z,979.61
2018-03-30T03:18:19.927Z,979.58
2018-03-30T03:19:21.972Z,979.56
2018-03-30T03:20:20.292Z,979.51
2018-03-30T03:21:22.486Z,979.53
2018-03-30T03:22:22.481Z,979.56
2018-03-30T03:23:20.814Z,979.50
2018-03-30T03:24:22.973Z,979.53
2018-03-30T03:25:21.168Z,979.47
2018-03-30T03:26:21.391Z,979.51
2018-03-30T03:27:21.573Z,979.49
2018-03-30T03:28:21.775Z,979.51
2018-03-30T03:29:21.989Z,979.48
2018-03-30T03:30:22.184Z,979.46
2018-03-30T03:31:22.381Z,979.47
2018-03-30T03:32:22.588Z,979.45
2018-03-30T03:33:22.785Z,979.46
2018-03-30T03:34:22.995Z,979.47
2018-03-30T03:35:23.200Z,979.46
2018-03-30T03:36:23.404Z,979.43
2018-03-30T03:37:23.620Z,979.41
2018-03-30T03:38:23.828Z,979.39
2018-03-30T03:39:25.982Z,979.41
2018-03-30T03:40:24.205Z,979.41
2018-03-30T03:41:24.428Z,979.44
2018-03-30T03:42:24.586Z,979.47
2018-03-30T03:43:24.798Z,979.43
2018-03-30T03:44:24.993Z,979.46
2018-03-30T03:45:26.980Z,979.46
2018-03-30T03:46:25.332Z,979.47
2018-03-30T03:47:25.527Z,979.41
2018-03-30T03:48:27.480Z,979.42
2018-03-30T03:49:27.471Z,979.37
2018-03-30T03:50:26.046Z,979.38
2018-03-30T03:51:26.253Z,979.36
2018-03-30T03:52:26.463Z,979.39
2018-03-30T03:53:28.474Z,979.37
2018-03-30T03:54:26.842Z,979.32
2018-03-30T03:55:30.477Z,979.35
2018-03-30T03:56:28.972Z,979.36
2018-03-30T03:57:34.971Z,979.34
2018-03-30T03:58:27.299Z,979.32
2018-03-30T03:59:27.503Z,979.30
2018-03-30T04:00:27.703Z,979.31
2018-03-30T04:01:31.804Z,979.32
2018-03-30T04:02:28.140Z,979.27
2018-03-30T04:03:28.346Z,979.24
2018-03-30T04:04:28.541Z,979.27
2018-03-30T04:05:28.752Z,979.26
2018-03-30T04:06:30.477Z,979.31
2018-03-30T04:07:29.170Z,979.27
2018-03-30T04:08:29.378Z,979.30
2018-03-30T04:09:29.573Z,979.30
2018-03-30T04:10:29.786Z,979.29
2018-03-30T04:11:30.005Z,979.25
2018-03-30T04:12:31.971Z,979.28
2018-03-30T04:13:30.420Z,979.28
2018-03-30T04:14:30.634Z,979.32
2018-03-30T04:15:30.843Z,979.29
2018-03-30T04:16:31.054Z,979.33
2018-03-30T04:17:32.978Z,979.32
2018-03-30T04:18:31.439Z,979.28
2018-03-30T04:19:31.638Z,979.28
2018-03-30T04:20:31.843Z,979.31
2018-03-30T04:21:32.047Z,979.26
2018-03-30T04:22:32.249Z,979.28
2018-03-30T04:23:32.445Z,979.26
2018-03-30T04:24:32.653Z,979.22
2018-03-30T04:25:32.860Z,979.23
2018-03-30T04:26:33.079Z,979.25
2018-03-30T04:27:34.988Z,979.25
2018-03-30T04:28:33.422Z,979.28
2018-03-30T04:29:33.628Z,979.30
2018-03-30T04:30:33.843Z,979.33
2018-03-30T04:31:34.039Z,979.30
2018-03-30T04:32:34.247Z,979.28
2018-03-30T04:33:34.454Z,979.28
2018-03-30T04:34:36.471Z,979.30
2018-03-30T04:35:34.800Z,979.25
2018-03-30T04:36:35.007Z,979.23
2018-03-30T04:37:35.208Z,979.22
2018-03-30T04:38:35.417Z,979.27
2018-03-30T04:39:35.616Z,979.25
2018-03-30T04:40:35.843Z,979.23
2018-03-30T04:41:36.039Z,979.24
2018-03-30T04:42:36.256Z,979.21
2018-03-30T04:43:36.483Z,979.23
2018-03-30T04:44:36.677Z,979.27
2018-03-30T04:45:36.885Z,979.26
2018-03-30T04:46:37.096Z,979.27
2018-03-30T04:47:38.985Z,979.25
2018-03-30T04:48:37.439Z,979.24
2018-03-30T04:49:37.650Z,979.20
2018-03-30T04:50:39.481Z,979.23
2018-03-30T04:51:38.066Z,979.25
2018-03-30T04:52:38.264Z,979.26
2018-03-30T04:53:38.461Z,979.20
2018-03-30T04:54:38.690Z,979.20
2018-03-30T04:55:38.868Z,979.22
2018-03-30T04:56:39.069Z,979.18
2018-03-30T04:57:39.277Z,979.22
2018-03-30T04:58:39.482Z,979.19
2018-03-30T04:59:39.689Z,979.15
2018-03-30T05:00:39.905Z,979.13
2018-03-30T05:01:40.102Z,979.19
2018-03-30T05:02:40.312Z,979.16
2018-03-30T05:03:40.516Z,979.16
2018-03-30T05:04:41.540Z,979.13
2018-03-30T05:05:40.874Z,979.16
2018-03-30T05:06:41.077Z,979.13
2018-03-30T05:07:41.299Z,979.11
2018-03-30T05:08:41.498Z,979.11
2018-03-30T05:09:41.701Z,979.12
2018-03-30T05:10:41.918Z,979.12
2018-03-30T05:11:43.987Z,979.14
2018-03-30T05:12:42.305Z,979.14
2018-03-30T05:13:42.510Z,979.13
2018-03-30T05:14:42.717Z,979.12
2018-03-30T05:15:42.923Z,979.11
2018-03-30T05:16:43.139Z,979.09
2018-03-30T05:17:43.336Z,979.09
2018-03-30T05:18:45.476Z,979.07
2018-03-30T05:19:45.473Z,979.08
2018-03-30T05:20:43.794Z,979.05
2018-03-30T05:21:44.009Z,979.09
2018-03-30T05:22:44.205Z,979.05
2018-03-30T05:23:44.410Z,979.13
2018-03-30T05:24:44.608Z,979.10
2018-03-30T05:25:44.805Z,979.11
2018-03-30T05:26:44.999Z,979.09
2018-03-30T05:27:45.210Z,979.12
2018-03-30T05:28:47.977Z,979.06
2018-03-30T05:29:45.557Z,979.11
2018-03-30T05:30:45.766Z,979.17
2018-03-30T05:31:53.482Z,979.11
2018-03-30T05:32:46.183Z,979.12
2018-03-30T05:33:46.384Z,979.11
2018-03-30T05:34:46.599Z,979.14
2018-03-30T05:35:46.811Z,979.22
2018-03-30T05:36:47.008Z,979.16
2018-03-30T05:37:47.221Z,979.17
2018-03-30T05:38:47.420Z,979.16
2018-03-30T05:39:47.671Z,979.19
2018-03-30T05:40:47.821Z,979.19
2018-03-30T05:41:48.023Z,979.18
2018-03-30T05:42:48.220Z,979.22
2018-03-30T05:43:48.425Z,979.17
2018-03-30T05:44:48.628Z,979.16
2018-03-30T05:45:48.832Z,979.15
2018-03-30T05:46:49.036Z,979.16
2018-03-30T05:47:49.234Z,979.19
2018-03-30T05:48:50.991Z,979.15
2018-03-30T05:49:49.556Z,979.14
2018-03-30T05:50:49.755Z,979.15
2018-03-30T05:51:49.962Z,979.16
2018-03-30T05:52:50.170Z,979.18
2018-03-30T05:53:52.972Z,979.14
2018-03-30T05:54:50.553Z,979.17
2018-03-30T05:55:50.754Z,979.16
2018-03-30T05:56:50.947Z,979.12
2018-03-30T05:57:51.153Z,979.18
2018-03-30T05:58:51.361Z,979.15
2018-03-30T05:59:51.572Z,979.14
2018-03-30T06:00:51.766Z,979.14
2018-03-30T06:01:51.971Z,979.13
2018-03-30T06:02:52.182Z,979.12
2018-03-30T06:03:52.379Z,979.16
2018-03-30T06:04:52.591Z,979.13
2018-03-30T06:05:52.796Z,979.15
2018-03-30T06:06:53.016Z,979.10
2018-03-30T06:07:54.970Z,979.16
2018-03-30T06:08:53.429Z,979.15
2018-03-30T06:09:53.645Z,979.20
2018-03-30T06:10:53.855Z,979.22
2018-03-30T06:11:54.062Z,979.17
2018-03-30T06:12:55.975Z,979.18
2018-03-30T06:13:54.429Z,979.17
2018-03-30T06:14:54.635Z,979.20
2018-03-30T06:15:54.830Z,979.24
2018-03-30T06:16:56.969Z,979.21
2018-03-30T06:17:55.178Z,979.22
2018-03-30T06:18:56.975Z,979.18
2018-03-30T06:19:57.474Z,979.21
2018-03-30T06:20:55.665Z,979.19
2018-03-30T06:21:55.884Z,979.17
2018-03-30T06:22:56.081Z,979.12
2018-03-30T06:23:56.294Z,979.12
2018-03-30T06:24:56.505Z,979.12
2018-03-30T06:25:58.476Z,979.14
2018-03-30T06:26:56.932Z,979.17
2018-03-30T06:27:57.130Z,979.17
2018-03-30T06:28:57.333Z,979.15
2018-03-30T06:29:57.538Z,979.16
2018-03-30T06:30:57.741Z,979.13
2018-03-30T06:31:57.948Z,979.17
2018-03-30T06:32:59.970Z,979.20
2018-03-30T06:33:58.296Z,979.16
2018-03-30T06:34:58.504Z,979.10
2018-03-30T06:35:58.716Z,979.10
2018-03-30T06:36:58.913Z,979.14
2018-03-30T06:38:05.972Z,979.15
2018-03-30T06:38:59.301Z,979.10
2018-03-30T06:39:59.500Z,979.12
2018-03-30T06:41:10.484Z,979.14
2018-03-30T06:41:59.924Z,979.13
2018-03-30T06:43:03.968Z,979.20
2018-03-30T06:44:01.974Z,979.24
2018-03-30T06:45:00.446Z,979.20
2018-03-30T06:46:00.623Z,979.15
2018-03-30T06:47:02.473Z,979.15
2018-03-30T06:48:01.046Z,979.14
2018-03-30T06:49:01.252Z,979.14
2018-03-30T06:50:01.447Z,979.09
2018-03-30T06:51:01.655Z,979.10
2018-03-30T06:52:01.872Z,979.09
2018-03-30T06:53:02.081Z,979.13
2018-03-30T06:54:02.299Z,979.10
2018-03-30T06:55:02.502Z,979.12
2018-03-30T06:56:02.707Z,979.11
2018-03-30T06:57:02.908Z,979.07
2018-03-30T06:58:03.123Z,979.09
2018-03-30T06:59:03.319Z,979.09
2018-03-30T07:00:03.530Z,979.12
2018-03-30T07:01:03.738Z,979.10
2018-03-30T07:02:03.929Z,979.14
2018-03-30T07:03:05.984Z,979.12
2018-03-30T07:04:06.007Z,979.14
2018-03-30T07:05:07.972Z,979.16
2018-03-30T07:06:04.553Z,979.15
2018-03-30T07:07:04.754Z,979.08
2018-03-30T07:08:06.477Z,979.17
2018-03-30T07:09:05.187Z,979.18
2018-03-30T07:10:05.390Z,979.14
2018-03-30T07:11:05.602Z,979.16
2018-03-30T07:12:05.813Z,979.18
2018-03-30T07:13:06.015Z,979.22
2018-03-30T07:14:06.227Z,979.19
2018-03-30T07:15:06.430Z,979.07
2018-03-30T07:16:08.553Z,979.02
2018-03-30T07:17:06.801Z,979.08
2018-03-30T07:18:07.013Z,979.02
2018-03-30T07:19:07.233Z,979.06
2018-03-30T07:20:07.441Z,979.02
2018-03-30T07:21:07.643Z,979.15
2018-03-30T07:22:07.904Z,979.20
2018-03-30T07:23:09.974Z,979.22
2018-03-30T07:24:08.198Z,979.34
2018-03-30T07:25:08.406Z,979.21
2018-03-30T07:26:08.612Z,978.99
2018-03-30T07:27:08.826Z,978.92
2018-03-30T07:28:09.048Z,979.12
2018-03-30T07:29:09.248Z,979.01
2018-03-30T07:30:10.978Z,978.96
2018-03-30T07:31:09.682Z,979.14
2018-03-30T07:32:09.910Z,979.12
2018-03-30T07:33:10.089Z,979.00
2018-03-30T07:34:10.312Z,979.08
2018-03-30T07:35:10.502Z,979.22
2018-03-30T07:36:12.474Z,979.13
2018-03-30T07:37:10.926Z,979.12
2018-03-30T07:38:11.147Z,978.94
2018-03-30T07:39:11.375Z,979.48
2018-03-30T07:40:11.564Z,979.35
2018-03-30T07:41:11.787Z,979.50
2018-03-30T07:42:13.972Z,979.46
2018-03-30T07:43:13.972Z,979.70
2018-03-30T07:44:13.975Z,979.60
2018-03-30T07:45:12.444Z,979.21
2018-03-30T07:46:16.478Z,979.19
2018-03-30T07:47:12.818Z,979.76
2018-03-30T07:48:17.168Z,979.87
2018-03-30T07:49:13.282Z,979.91
2018-03-30T07:50:13.463Z,979.84
2018-03-30T07:51:13.681Z,979.69
2018-03-30T07:52:13.909Z,979.92
2018-03-30T07:53:14.109Z,979.97
2018-03-30T07:54:14.339Z,979.94
2018-03-30T07:55:18.473Z,979.92
2018-03-30T07:56:17.067Z,979.86
2018-03-30T07:57:17.523Z,979.76
2018-03-30T07:58:30.987Z,979.50
2018-03-30T07:59:15.314Z,979.85
2018-03-30T08:00:18.520Z,979.40
2018-03-30T08:01:16.005Z,979.90
2018-03-30T08:02:17.491Z,979.84
2018-03-30T08:03:16.118Z,979.85
2018-03-30T08:04:16.280Z,979.85
2018-03-30T08:05:32.027Z,979.46
2018-03-30T08:06:37.745Z,979.69
2018-03-30T08:07:17.813Z,979.01
2018-03-30T08:08:24.473Z,979.91
2018-03-30T08:09:34.460Z,979.97
2018-03-30T08:10:29.434Z,979.79
2018-03-30T08:11:32.972Z,979.92
2018-03-30T08:12:21.487Z,979.45
2018-03-30T08:13:18.465Z,979.03
2018-03-30T08:14:19.482Z,979.22
2018-03-30T08:15:18.065Z,979.16
2018-03-30T08:16:24.981Z,979.14
2018-03-30T08:17:18.778Z,979.55
2018-03-30T08:18:25.477Z,979.75
2018-03-30T08:19:33.489Z,979.74
2018-03-30T08:20:20.947Z,979.88
2018-03-30T08:21:24.453Z,979.53
2018-03-30T08:22:21.465Z,979.44
2018-03-30T08:23:23.477Z,979.87
2018-03-30T08:24:24.459Z,979.34
2018-03-30T08:25:22.460Z,978.86
2018-03-30T08:26:28.928Z,979.73
2018-03-30T08:27:21.976Z,979.80
2018-03-30T08:28:21.983Z,979.73
2018-03-30T08:29:21.986Z,979.68
2018-03-30T08:30:24.509Z,979.41
2018-03-30T08:31:23.468Z,979.59
2018-03-30T08:32:22.489Z,979.64
2018-03-30T08:33:24.978Z,979.59
2018-03-30T08:34:22.981Z,979.46
2018-03-30T08:35:36.978Z,979.60
2018-03-30T08:36:22.929Z,979.56
2018-03-30T08:37:25.476Z,979.53
2018-03-30T08:38:24.004Z,979.50
2018-03-30T08:39:24.980Z,979.45
2018-03-30T08:40:23.471Z,979.43
2018-03-30T08:41:26.476Z,979.40
2018-03-30T08:42:23.763Z,979.32
2018-03-30T08:43:38.978Z,979.33
2018-03-30T08:44:24.941Z,979.27
2018-03-30T08:45:24.980Z,979.31
2018-03-30T08:46:23.607Z,979.29
2018-03-30T08:47:25.533Z,979.28
2018-03-30T08:48:26.440Z,979.35
2018-03-30T08:49:25.986Z,979.36
2018-03-30T08:50:26.024Z,979.28
2018-03-30T08:51:26.018Z,979.27
2018-03-30T08:52:31.509Z,979.27
2018-03-30T08:53:24.718Z,979.25
2018-03-30T08:54:24.946Z,979.25
2018-03-30T08:55:26.196Z,979.25
2018-03-30T08:56:25.394Z,979.29
2018-03-30T08:57:41.479Z,979.23
2018-03-30T08:58:27.480Z,979.17
2018-03-30T08:59:27.481Z,979.15
2018-03-30T09:00:41.979Z,979.13
2018-03-30T09:01:27.990Z,979.13
2018-03-30T09:02:27.992Z,979.00
2018-03-30T09:03:28.967Z,978.95
2018-03-30T09:04:26.734Z,979.01
2018-03-30T09:05:26.877Z,979.01
2018-03-30T09:06:30.998Z,979.00
2018-03-30T09:07:28.986Z,978.97
2018-03-30T09:08:28.480Z,978.94
2018-03-30T09:09:27.609Z,978.84
2018-03-30T09:10:43.480Z,978.56
2018-03-30T09:11:27.942Z,978.68
2018-03-30T09:12:31.988Z,978.74
2018-03-30T09:13:28.322Z,978.77
2018-03-30T09:14:28.553Z,978.77
2018-03-30T09:15:28.771Z,978.78
2018-03-30T09:16:30.503Z,978.82
2018-03-30T09:17:30.998Z,978.87
2018-03-30T09:18:29.484Z,978.88
2018-03-30T09:19:29.602Z,978.90
2018-03-30T09:20:29.847Z,978.90
2018-03-30T09:21:31.984Z,978.80
2018-03-30T09:22:30.245Z,978.70
2018-03-30T09:23:31.986Z,978.67
2018-03-30T09:24:32.502Z,978.61
2018-03-30T09:25:32.490Z,978.67
2018-03-30T09:26:32.511Z,978.79
2018-03-30T09:27:31.123Z,978.74
2018-03-30T09:28:33.009Z,978.83
2018-03-30T09:29:32.982Z,978.80
2018-03-30T09:30:31.706Z,978.77
2018-03-30T09:31:37.487Z,978.74
2018-03-30T09:32:32.126Z,978.67
2018-03-30T09:33:33.338Z,978.74
2018-03-30T09:34:35.486Z,978.72
2018-03-30T09:35:32.730Z,978.68
2018-03-30T09:36:32.843Z,978.71
2018-03-30T09:37:33.059Z,978.61
2018-03-30T09:38:35.020Z,978.58
2018-03-30T09:39:34.388Z,978.52
2018-03-30T09:40:33.607Z,978.50
2018-03-30T09:41:33.835Z,978.54
2018-03-30T09:42:34.055Z,978.53
2018-03-30T09:43:34.276Z,978.55
2018-03-30T09:44:40.058Z,978.49
2018-03-30T09:45:34.718Z,978.55
2018-03-30T09:46:36.493Z,978.51
2018-03-30T09:47:36.102Z,978.50
2018-03-30T09:48:35.329Z,978.43
2018-03-30T09:49:37.489Z,978.39
2018-03-30T09:50:37.498Z,978.35
2018-03-30T09:51:35.847Z,978.35
2018-03-30T09:52:36.077Z,978.34
2018-03-30T09:53:36.357Z,978.30
2018-03-30T09:54:36.526Z,978.26
2018-03-30T09:55:36.744Z,978.17
2018-03-30T09:56:38.489Z,978.13
2018-03-30T09:57:37.220Z,978.06
2018-03-30T09:58:37.439Z,978.03
2018-03-30T09:59:37.665Z,978.00
2018-03-30T10:00:38.016Z,978.00
2018-03-30T10:01:38.129Z,977.94
2018-03-30T10:02:38.367Z,977.91
2018-03-30T10:03:38.599Z,977.88
2018-03-30T10:04:38.833Z,977.83
2018-03-30T10:05:40.050Z,977.80
2018-03-30T10:06:40.278Z,977.77
2018-03-30T10:07:39.505Z,977.81
2018-03-30T10:08:43.488Z,977.76
2018-03-30T10:09:39.976Z,977.76
2018-03-30T10:10:40.105Z,977.84
2018-03-30T10:11:41.337Z,977.75
2018-03-30T10:12:42.497Z,977.74
2018-03-30T10:13:41.780Z,977.77
2018-03-30T10:14:42.490Z,977.82
2018-03-30T10:15:42.988Z,977.74
2018-03-30T10:16:41.341Z,977.81
2018-03-30T10:17:41.567Z,977.82
2018-03-30T10:18:41.824Z,977.78
2018-03-30T10:19:41.955Z,977.82
2018-03-30T10:20:42.208Z,977.78
2018-03-30T10:21:44.995Z,977.69
2018-03-30T10:22:42.613Z,977.86
2018-03-30T10:23:45.495Z,977.83
2018-03-30T10:24:44.493Z,977.85
2018-03-30T10:25:44.992Z,977.83
2018-03-30T10:26:43.460Z,977.76
2018-03-30T10:27:43.694Z,977.72
2018-03-30T10:28:43.910Z,977.72
2018-03-30T10:29:45.988Z,977.67
2018-03-30T10:30:45.989Z,977.67
2018-03-30T10:31:44.586Z,977.55
2018-03-30T10:32:48.511Z,977.50
2018-03-30T10:33:44.992Z,977.44
2018-03-30T10:34:45.216Z,977.25
2018-03-30T10:35:45.444Z,977.14
2018-03-30T10:36:48.492Z,977.11
2018-03-30T10:37:45.840Z,977.14
2018-03-30T10:38:47.993Z,977.08
2018-03-30T10:39:46.215Z,977.07
2018-03-30T10:40:47.991Z,977.03
2018-03-30T10:41:49.497Z,977.00
2018-03-30T10:42:46.727Z,977.00
2018-03-30T10:43:46.961Z,976.96
2018-03-30T10:44:47.188Z,976.93
2018-03-30T10:45:48.990Z,976.91
2018-03-30T10:46:47.606Z,976.94
2018-03-30T10:47:47.820Z,976.89
2018-03-30T10:48:48.103Z,976.91
2018-03-30T10:49:48.265Z,976.80
2018-03-30T10:50:48.502Z,976.87
2018-03-30T10:51:51.492Z,976.84
2018-03-30T10:52:48.845Z,976.80
2018-03-30T10:53:49.077Z,976.79
2018-03-30T10:54:50.993Z,976.75
2018-03-30T10:55:50.996Z,976.72
2018-03-30T10:56:51.496Z,976.71
2018-03-30T10:57:55.528Z,976.66
2018-03-30T10:58:50.299Z,976.61
2018-03-30T10:59:51.068Z,976.61
2018-03-30T11:00:52.005Z,976.61
2018-03-30T11:01:51.993Z,976.53
2018-03-30T11:02:50.532Z,976.53
2018-03-30T11:03:50.622Z,976.54
2018-03-30T11:04:52.500Z,976.44
2018-03-30T11:05:56.994Z,976.38
2018-03-30T11:06:51.228Z,976.34
2018-03-30T11:07:52.468Z,976.27
2018-03-30T11:08:51.681Z,976.21
2018-03-30T11:09:58.500Z,976.18
2018-03-30T11:10:52.088Z,976.13
2018-03-30T11:11:55.996Z,976.12
2018-03-30T11:12:52.475Z,976.09
2018-03-30T11:13:52.703Z,976.07
2018-03-30T11:14:53.949Z,976.09
2018-03-30T11:15:55.038Z,976.01
2018-03-30T11:16:55.995Z,975.98
2018-03-30T11:17:54.535Z,975.93
2018-03-30T11:18:53.684Z,975.88
2018-03-30T11:19:55.520Z,975.91
2018-03-30T11:20:55.497Z,975.57
2018-03-30T11:21:58.000Z,975.82
2018-03-30T11:22:56.002Z,975.72
2018-03-30T11:23:54.608Z,975.70
2018-03-30T11:24:55.463Z,975.64
2018-03-30T11:25:56.502Z,975.34
2018-03-30T11:26:56.996Z,975.60
2018-03-30T11:27:55.344Z,975.58
2018-03-30T11:28:57.512Z,975.58
2018-03-30T11:29:57.503Z,975.52
2018-03-30T11:30:57.500Z,975.23
2018-03-30T11:31:58.023Z,975.43
2018-03-30T11:32:58.006Z,975.49
2018-03-30T11:33:59.003Z,975.47
2018-03-30T11:34:58.530Z,975.47
2018-03-30T11:35:56.889Z,975.53
2018-03-30T11:36:57.111Z,975.55
2018-03-30T11:37:57.372Z,975.40
2018-03-30T11:39:01.040Z,975.47
2018-03-30T11:39:57.639Z,975.23
2018-03-30T11:40:59.509Z,975.54
2018-03-30T11:41:59.577Z,975.50
2018-03-30T11:42:58.214Z,975.33
2018-03-30T11:44:14.951Z,975.39
2018-03-30T11:45:25.525Z,975.44
2018-03-30T11:45:58.859Z,975.46
2018-03-30T11:46:59.078Z,975.15
2018-03-30T11:47:59.958Z,975.29
2018-03-30T11:49:01.455Z,975.07
2018-03-30T11:50:01.521Z,975.16
2018-03-30T11:51:01.530Z,975.36
2018-03-30T11:52:00.028Z,975.14
2018-03-30T11:53:03.954Z,975.03
2018-03-30T11:54:00.432Z,975.05
2018-03-30T11:55:07.163Z,975.08
2018-03-30T11:56:01.471Z,975.06
2018-03-30T11:57:05.460Z,974.99
2018-03-30T11:58:01.197Z,975.00
2018-03-30T11:59:03.961Z,975.05
2018-03-30T12:00:03.563Z,975.16
2018-03-30T12:01:02.498Z,975.20
2018-03-30T12:02:02.194Z,975.07
2018-03-30T12:03:04.004Z,975.06
2018-03-30T12:04:06.180Z,974.95
2018-03-30T12:05:06.531Z,974.98
2018-03-30T12:06:05.510Z,974.99
2018-03-30T12:07:03.012Z,974.96
2018-03-30T12:08:07.053Z,974.97
2018-03-30T12:09:06.054Z,974.92
2018-03-30T12:10:05.544Z,975.01
2018-03-30T12:11:03.781Z,974.90
2018-03-30T12:12:07.501Z,974.86
2018-03-30T12:13:06.213Z,974.91
2018-03-30T12:14:06.373Z,974.80
2018-03-30T12:15:06.503Z,974.81
2018-03-30T12:16:04.807Z,974.88
2018-03-30T12:17:05.957Z,974.85
2018-03-30T12:18:07.005Z,974.86
2018-03-30T12:19:08.955Z,974.76
2018-03-30T12:20:05.477Z,974.77
2018-03-30T12:21:07.513Z,974.76
2018-03-30T12:22:05.778Z,974.71
2018-03-30T12:23:07.525Z,974.69
2018-03-30T12:24:06.120Z,974.65
2018-03-30T12:25:09.486Z,974.68
2018-03-30T12:26:13.013Z,974.67
2018-03-30T12:27:10.523Z,974.73
2018-03-30T12:28:10.518Z,974.66
2018-03-30T12:29:06.865Z,974.61
2018-03-30T12:30:07.089Z,974.62
2018-03-30T12:31:11.004Z,974.56